createdAt,value
2023-03-25T00:02:27.333Z,9.85
2023-03-25T00:04:56.314Z,12.52
2023-03-25T00:07:24.524Z,14.60
2023-03-25T00:09:52.654Z,12.52
2023-03-25T00:12:20.751Z,12.10
2023-03-25T00:14:54.816Z,12.18
2023-03-25T00:17:26.527Z,11.52
2023-03-25T00:19:55.528Z,13.57
2023-03-25T00:22:24.131Z,13.30
2023-03-25T00:24:52.219Z,15.15
2023-03-25T00:27:20.508Z,10.13
2023-03-25T00:29:48.575Z,11.60
2023-03-25T00:32:17.446Z,10.52
2023-03-25T00:34:48.225Z,13.45
2023-03-25T00:37:18.337Z,14.65
2023-03-25T00:39:46.849Z,14.27
2023-03-25T00:42:17.498Z,12.75
2023-03-25T00:44:45.791Z,11.00
2023-03-25T00:47:18.412Z,11.07
2023-03-25T00:49:47.970Z,14.57
2023-03-25T00:52:16.907Z,11.50
2023-03-25T00:54:46.008Z,12.77
2023-03-25T00:57:14.333Z,7.78
2023-03-25T00:59:42.520Z,15.27
2023-03-25T01:02:11.625Z,15.05
2023-03-25T01:04:42.323Z,19.83
2023-03-25T01:07:12.783Z,12.70
2023-03-25T01:09:41.700Z,15.25
2023-03-25T01:12:10.137Z,15.68
2023-03-25T01:14:38.251Z,14.70
2023-03-25T01:17:06.929Z,12.95
2023-03-25T01:19:35.055Z,14.50
2023-03-25T01:22:03.260Z,17.08
2023-03-25T01:24:32.864Z,13.63
2023-03-25T01:27:01.173Z,16.05
2023-03-25T01:29:30.692Z,10.02
2023-03-25T01:31:59.320Z,14.50
2023-03-25T01:34:27.401Z,11.25
2023-03-25T01:36:56.384Z,11.30
2023-03-25T01:39:24.974Z,9.88
2023-03-25T01:41:55.264Z,13.07
2023-03-25T01:45:00.884Z,13.65
2023-03-25T01:47:29.177Z,10.70
2023-03-25T01:49:57.329Z,11.20
2023-03-25T01:52:29.786Z,13.55
2023-03-25T01:55:00.929Z,10.57
2023-03-25T01:57:31.121Z,11.07
2023-03-25T02:00:09.723Z,11.07
2023-03-25T02:02:40.925Z,13.90
2023-03-25T02:05:14.143Z,15.07
2023-03-25T02:07:46.924Z,12.77
2023-03-25T02:10:16.218Z,14.52
2023-03-25T02:12:47.267Z,15.75
2023-03-25T02:15:18.056Z,19.48
2023-03-25T02:18:09.313Z,20.05
2023-03-25T02:21:13.196Z,16.80
2023-03-25T02:24:12.085Z,15.75
2023-03-25T02:27:28.296Z,13.57
2023-03-25T02:30:13.443Z,15.70
2023-03-25T02:33:01.897Z,11.70
2023-03-25T02:35:41.646Z,12.13
2023-03-25T02:38:36.746Z,17.77
2023-03-25T02:41:12.926Z,12.38
2023-03-25T02:43:45.686Z,10.52
2023-03-25T02:46:18.128Z,12.57
2023-03-25T02:48:53.814Z,11.40
2023-03-25T02:51:27.147Z,12.98
2023-03-25T02:53:59.897Z,12.95
2023-03-25T02:56:29.560Z,18.10
2023-03-25T02:58:58.612Z,13.98
2023-03-25T03:01:27.788Z,16.38
2023-03-25T03:03:57.487Z,22.58
2023-03-25T03:06:26.280Z,18.27
2023-03-25T03:09:16.352Z,16.60
2023-03-25T03:11:55.529Z,17.13
2023-03-25T03:14:35.370Z,17.10
2023-03-25T03:17:12.150Z,21.42
2023-03-25T03:19:46.434Z,19.67
2023-03-25T03:22:35.140Z,19.30
2023-03-25T03:25:12.359Z,20.63
2023-03-25T03:27:47.058Z,20.67
2023-03-25T03:30:19.830Z,17.23
2023-03-25T03:32:54.132Z,18.60
2023-03-25T03:35:27.664Z,18.38
2023-03-25T03:38:00.816Z,24.80
2023-03-25T03:40:32.225Z,24.45
2023-03-25T03:43:04.661Z,15.90
2023-03-25T03:45:37.428Z,19.60
2023-03-25T03:48:10.382Z,16.85
2023-03-25T03:50:43.045Z,22.98
2023-03-25T03:53:16.655Z,20.83
2023-03-25T03:55:52.198Z,18.80
2023-03-25T03:58:24.182Z,22.88
2023-03-25T04:00:59.327Z,22.45
2023-03-25T04:03:35.010Z,16.27
2023-03-25T04:06:09.794Z,18.25
2023-03-25T04:08:44.275Z,19.73
2023-03-25T04:11:20.289Z,23.35
2023-03-25T04:13:53.347Z,22.33
2023-03-25T04:16:21.732Z,26.42
2023-03-25T04:18:53.657Z,20.20
2023-03-25T04:21:22.143Z,21.92
2023-03-25T04:23:51.719Z,18.33
2023-03-25T04:26:21.802Z,24.17
2023-03-25T04:28:49.833Z,18.05
2023-03-25T04:31:18.421Z,18.17
2023-03-25T04:33:48.630Z,21.25
2023-03-25T04:36:17.944Z,16.85
2023-03-25T04:38:46.845Z,18.65
2023-03-25T04:41:15.059Z,21.67
2023-03-25T04:43:45.515Z,25.80
2023-03-25T04:46:15.924Z,16.92
2023-03-25T04:48:45.148Z,17.33
2023-03-25T04:51:13.830Z,21.45
2023-03-25T04:53:42.966Z,22.27
2023-03-25T04:56:16.783Z,22.42
2023-03-25T04:58:46.690Z,17.27
2023-03-25T05:01:24.015Z,17.83
2023-03-25T05:03:52.182Z,21.15
2023-03-25T05:06:20.285Z,14.93
2023-03-25T05:08:48.294Z,20.27
2023-03-25T05:11:16.324Z,22.30
2023-03-25T05:13:44.324Z,20.30
2023-03-25T05:16:13.771Z,19.30
2023-03-25T05:18:41.852Z,15.48
2023-03-25T05:21:11.362Z,17.00
2023-03-25T05:23:39.707Z,21.02
2023-03-25T05:26:08.007Z,13.00
2023-03-25T05:28:36.690Z,20.05
2023-03-25T05:31:08.336Z,21.02
2023-03-25T05:33:43.367Z,21.45
2023-03-25T05:36:12.400Z,21.02
2023-03-25T05:38:41.953Z,21.13
2023-03-25T05:41:12.157Z,18.38
2023-03-25T05:43:40.215Z,20.73
2023-03-25T05:46:08.473Z,21.83
2023-03-25T05:48:37.919Z,18.52
2023-03-25T05:51:13.542Z,14.45
2023-03-25T05:53:43.663Z,15.95
2023-03-25T05:56:11.897Z,17.95
2023-03-25T05:58:40.160Z,16.52
2023-03-25T06:01:17.023Z,20.30
2023-03-25T06:03:55.539Z,17.55
2023-03-25T06:06:25.884Z,15.15
2023-03-25T06:08:54.039Z,14.60
2023-03-25T06:11:22.313Z,15.88
2023-03-25T06:13:50.873Z,21.58
2023-03-25T06:16:20.746Z,18.15
2023-03-25T06:18:56.523Z,19.35
2023-03-25T06:21:27.620Z,21.10
2023-03-25T06:23:56.071Z,19.70
2023-03-25T06:26:25.318Z,16.88
2023-03-25T06:28:54.754Z,20.73
2023-03-25T06:31:26.572Z,18.27
2023-03-25T06:33:55.985Z,19.17
2023-03-25T06:36:26.036Z,19.15
2023-03-25T06:38:54.931Z,19.55
2023-03-25T06:41:25.179Z,20.30
2023-03-25T06:44:09.820Z,21.65
2023-03-25T06:47:02.546Z,16.90
2023-03-25T06:49:51.419Z,15.73
2023-03-25T06:52:20.840Z,18.05
2023-03-25T06:54:48.931Z,20.67
2023-03-25T06:57:17.130Z,21.92
2023-03-25T06:59:45.561Z,20.70
2023-03-25T07:02:14.548Z,15.88
2023-03-25T07:04:42.644Z,19.42
2023-03-25T07:07:11.059Z,23.38
2023-03-25T07:09:40.457Z,17.67
2023-03-25T07:12:09.436Z,20.05
2023-03-25T07:14:37.515Z,20.95
2023-03-25T07:17:06.316Z,17.42
2023-03-25T07:19:34.319Z,19.13
2023-03-25T07:22:02.359Z,17.73
2023-03-25T07:24:30.415Z,18.08
2023-03-25T07:26:59.776Z,12.60
2023-03-25T07:29:29.270Z,14.65
2023-03-25T07:31:57.318Z,14.02
2023-03-25T07:34:26.052Z,14.95
2023-03-25T07:36:54.083Z,17.33
2023-03-25T07:39:25.184Z,12.52
2023-03-25T07:41:53.204Z,15.02
2023-03-25T07:44:31.015Z,15.00
2023-03-25T07:46:59.058Z,15.20
2023-03-25T07:49:27.046Z,16.05
2023-03-25T07:51:55.064Z,18.88
2023-03-25T07:54:24.418Z,17.23
2023-03-25T07:56:54.548Z,18.50
2023-03-25T07:59:22.604Z,15.57
2023-03-25T08:01:52.046Z,15.88
2023-03-25T08:04:20.075Z,18.15
2023-03-25T08:06:48.096Z,23.80
2023-03-25T08:09:16.124Z,16.83
2023-03-25T08:11:44.215Z,21.40
2023-03-25T08:14:12.204Z,12.25
2023-03-25T08:16:40.687Z,13.60
2023-03-25T08:19:11.059Z,21.42
2023-03-25T08:21:39.284Z,23.92
2023-03-25T08:24:07.675Z,15.35
2023-03-25T08:26:36.632Z,17.88
2023-03-25T08:29:05.016Z,21.98
2023-03-25T08:31:33.947Z,19.67
2023-03-25T08:34:03.172Z,20.75
2023-03-25T08:36:33.462Z,22.25
2023-03-25T08:39:07.802Z,21.27
2023-03-25T08:41:37.852Z,23.33
2023-03-25T08:44:06.177Z,21.67
2023-03-25T08:46:40.617Z,18.75
2023-03-25T08:49:13.003Z,13.15
2023-03-25T08:51:42.472Z,17.92
2023-03-25T08:54:10.783Z,13.98
2023-03-25T08:56:39.272Z,17.40
2023-03-25T08:59:07.402Z,17.52
2023-03-25T09:01:35.668Z,18.02
2023-03-25T09:04:03.775Z,19.85
2023-03-25T09:06:47.862Z,18.75
2023-03-25T09:09:18.133Z,20.90
2023-03-25T09:11:46.300Z,16.23
2023-03-25T09:14:14.393Z,16.38
2023-03-25T09:16:44.496Z,20.85
2023-03-25T09:19:12.599Z,19.00
2023-03-25T09:21:40.767Z,14.40
2023-03-25T09:24:09.991Z,12.75
2023-03-25T09:26:39.594Z,11.05
2023-03-25T09:29:07.772Z,10.88
2023-03-25T09:31:36.297Z,11.80
2023-03-25T09:34:04.688Z,9.93
2023-03-25T09:36:32.940Z,14.68
2023-03-25T09:39:01.379Z,14.55
2023-03-25T09:41:55.299Z,13.30
2023-03-25T09:44:28.550Z,18.80
2023-03-25T09:47:00.761Z,18.92
2023-03-25T09:49:38.875Z,23.15
2023-03-25T09:52:13.200Z,17.13
2023-03-25T09:54:52.956Z,16.00
2023-03-25T09:57:27.504Z,16.73
2023-03-25T09:59:57.638Z,20.73
2023-03-25T10:02:41.368Z,20.05
2023-03-25T10:05:30.425Z,20.08
2023-03-25T10:08:09.923Z,22.90
2023-03-25T10:10:44.834Z,19.67
2023-03-25T10:13:23.161Z,22.70
2023-03-25T10:15:57.733Z,20.63
2023-03-25T10:18:40.967Z,17.55
2023-03-25T10:21:16.436Z,16.60
2023-03-25T10:23:50.775Z,16.85
2023-03-25T10:26:22.937Z,20.45
2023-03-25T10:28:56.873Z,19.25
2023-03-25T10:31:28.362Z,16.88
2023-03-25T10:33:59.819Z,21.38
2023-03-25T10:36:34.150Z,20.02
2023-03-25T10:39:04.601Z,18.38
2023-03-25T10:41:37.343Z,20.25
2023-03-25T10:44:11.845Z,15.23
2023-03-25T10:46:47.558Z,17.65
2023-03-25T10:49:18.504Z,17.52
2023-03-25T10:51:48.232Z,12.38
2023-03-25T10:54:17.699Z,5.38
2023-03-25T10:56:49.335Z,5.50
2023-03-25T10:59:25.145Z,6.35
2023-03-25T11:01:54.694Z,6.07
2023-03-25T11:04:25.172Z,8.55
2023-03-25T11:06:57.540Z,10.98
2023-03-25T11:09:28.139Z,9.20
2023-03-25T11:11:56.248Z,13.57
2023-03-25T11:14:27.595Z,13.32
2023-03-25T11:16:57.818Z,14.38
2023-03-25T11:19:29.316Z,11.10
2023-03-25T11:22:01.933Z,16.35
2023-03-25T11:24:33.749Z,14.95
2023-03-25T11:27:02.864Z,13.02
2023-03-25T11:29:33.146Z,13.77
2023-03-25T11:32:08.308Z,12.20
2023-03-25T11:34:42.148Z,11.10
2023-03-25T11:37:18.200Z,10.93
2023-03-25T11:39:51.610Z,13.63
2023-03-25T11:42:32.208Z,13.00
2023-03-25T11:45:03.590Z,10.40
2023-03-25T11:47:34.684Z,11.50
2023-03-25T11:50:03.322Z,11.77
2023-03-25T11:52:40.600Z,12.73
2023-03-25T11:55:18.913Z,11.70
2023-03-25T11:57:48.996Z,12.18
2023-03-25T12:00:34.135Z,19.08
2023-03-25T12:03:06.593Z,10.13
2023-03-25T12:05:37.512Z,13.43
2023-03-25T12:08:15.237Z,12.73
2023-03-25T12:11:04.235Z,16.67
2023-03-25T12:14:09.368Z,12.20
2023-03-25T12:16:54.241Z,14.55
2023-03-25T12:19:31.195Z,12.77
2023-03-25T12:22:09.439Z,11.57
2023-03-25T12:24:53.501Z,14.18
2023-03-25T12:27:34.815Z,16.83
2023-03-25T12:30:19.028Z,17.40
2023-03-25T12:32:55.725Z,18.92
2023-03-25T12:35:32.377Z,20.00
2023-03-25T12:38:18.557Z,18.75
2023-03-25T12:41:01.699Z,15.93
2023-03-25T12:43:39.982Z,14.27
2023-03-25T12:46:20.711Z,13.80
2023-03-25T12:49:05.213Z,12.90
2023-03-25T12:51:47.596Z,9.75
2023-03-25T12:54:32.452Z,14.90
2023-03-25T12:57:14.450Z,15.77
2023-03-25T13:00:02.117Z,12.63
2023-03-25T13:02:50.201Z,14.63
2023-03-25T13:05:24.824Z,17.45
2023-03-25T13:07:58.397Z,18.90
2023-03-25T13:10:31.636Z,14.05
2023-03-25T13:13:01.595Z,16.48
2023-03-25T13:15:34.754Z,19.17
2023-03-25T13:18:07.528Z,17.45
2023-03-25T13:20:42.607Z,14.15
2023-03-25T13:23:17.722Z,13.90
2023-03-25T13:25:53.147Z,20.23
2023-03-25T13:28:25.613Z,9.82
2023-03-25T13:30:56.556Z,14.45
2023-03-25T13:33:28.985Z,15.80
2023-03-25T13:36:03.878Z,13.13
2023-03-25T13:38:35.304Z,16.23
2023-03-25T13:41:17.674Z,18.95
2023-03-25T13:43:55.443Z,13.32
2023-03-25T13:46:28.827Z,18.25
2023-03-25T13:49:00.501Z,15.65
2023-03-25T13:51:30.502Z,16.75
2023-03-25T13:54:03.007Z,17.15
2023-03-25T13:57:16.041Z,20.88
2023-03-25T14:00:24.967Z,17.02
2023-03-25T14:03:22.379Z,14.68
2023-03-25T14:06:29.543Z,14.32
2023-03-25T14:09:35.111Z,14.98
2023-03-25T14:12:08.347Z,15.05
2023-03-25T14:14:43.009Z,16.83
2023-03-25T14:17:13.332Z,10.25
2023-03-25T14:19:49.805Z,11.90
2023-03-25T14:22:19.922Z,9.35
2023-03-25T14:24:51.530Z,5.05
2023-03-25T14:27:24.949Z,9.20
2023-03-25T14:29:56.836Z,10.93
2023-03-25T14:32:34.960Z,11.07
2023-03-25T14:35:41.398Z,9.40
2023-03-25T14:38:47.238Z,12.02
2023-03-25T14:41:16.886Z,14.52
2023-03-25T14:43:47.262Z,12.73
2023-03-25T14:46:23.647Z,14.98
2023-03-25T14:48:55.018Z,11.93
2023-03-25T14:51:44.423Z,13.48
2023-03-25T14:54:22.550Z,14.35
2023-03-25T14:56:57.592Z,12.40
2023-03-25T14:59:31.282Z,7.90
2023-03-25T15:02:07.118Z,10.48
2023-03-25T15:04:37.935Z,9.00
2023-03-25T15:07:12.694Z,8.23
2023-03-25T15:09:47.929Z,12.27
2023-03-25T15:12:20.383Z,9.55
2023-03-25T15:14:51.247Z,10.93
2023-03-25T15:17:44.913Z,9.68
2023-03-25T15:20:28.776Z,11.35
2023-03-25T15:23:34.515Z,7.03
2023-03-25T15:26:04.910Z,8.25
2023-03-25T15:28:58.425Z,6.80
2023-03-25T15:31:38.407Z,3.50
2023-03-25T15:34:37.335Z,4.88
2023-03-25T15:37:46.205Z,7.95
2023-03-25T15:40:32.042Z,8.10
2023-03-25T15:43:44.806Z,13.68
2023-03-25T15:46:41.371Z,6.43
2023-03-25T15:49:23.193Z,6.68
2023-03-25T15:52:08.776Z,7.88
2023-03-25T15:54:40.550Z,6.60
2023-03-25T15:57:18.402Z,10.57
2023-03-25T15:59:52.431Z,8.85
2023-03-25T16:02:29.505Z,9.57
2023-03-25T16:04:58.158Z,7.80
2023-03-25T16:07:30.806Z,9.60
2023-03-25T16:10:06.929Z,10.15
2023-03-25T16:12:34.993Z,12.63
2023-03-25T16:15:07.106Z,10.50
2023-03-25T16:17:36.819Z,11.73
2023-03-25T16:20:07.741Z,13.93
2023-03-25T16:22:37.764Z,8.50
2023-03-25T16:25:09.326Z,12.30
2023-03-25T16:27:42.942Z,13.80
2023-03-25T16:30:22.672Z,8.95
2023-03-25T16:32:52.495Z,12.73
2023-03-25T16:35:26.163Z,13.60
2023-03-25T16:37:57.269Z,11.73
2023-03-25T16:40:29.616Z,15.43
2023-03-25T16:43:05.671Z,9.77
2023-03-25T16:45:35.284Z,13.73
2023-03-25T16:48:09.663Z,13.38
2023-03-25T16:50:39.109Z,12.30
2023-03-25T16:53:07.887Z,8.93
2023-03-25T16:55:47.227Z,11.95
2023-03-25T16:58:18.560Z,12.60
2023-03-25T17:00:50.092Z,8.65
2023-03-25T17:03:39.369Z,16.92
2023-03-25T17:06:12.916Z,12.40
2023-03-25T17:08:41.036Z,11.70
2023-03-25T17:11:10.180Z,15.60
2023-03-25T17:13:43.022Z,9.40
2023-03-25T17:16:11.782Z,13.13
2023-03-25T17:18:41.354Z,12.15
2023-03-25T17:21:12.438Z,12.75
2023-03-25T17:23:46.322Z,9.25
2023-03-25T17:26:17.498Z,14.70
2023-03-25T17:28:58.252Z,10.30
2023-03-25T17:31:29.726Z,11.32
2023-03-25T17:34:06.532Z,11.32
2023-03-25T17:36:37.837Z,10.68
2023-03-25T17:39:14.310Z,13.70
2023-03-25T17:41:42.424Z,14.18
2023-03-25T17:44:16.032Z,13.65
2023-03-25T17:46:44.508Z,18.65
2023-03-25T17:49:16.810Z,20.05
2023-03-25T17:51:46.393Z,13.48
2023-03-25T17:54:14.983Z,12.70
2023-03-25T17:56:43.735Z,20.10
2023-03-25T17:59:16.728Z,14.20
2023-03-25T18:01:45.357Z,17.77
2023-03-25T18:04:15.607Z,19.40
2023-03-25T18:06:44.315Z,16.38
2023-03-25T18:09:17.203Z,15.50
2023-03-25T18:11:45.912Z,18.52
2023-03-25T18:14:14.065Z,14.75
2023-03-25T18:16:42.239Z,19.90
2023-03-25T18:19:14.547Z,19.33
2023-03-25T18:21:44.239Z,19.85
2023-03-25T18:24:13.489Z,19.48
2023-03-25T18:26:42.147Z,15.65
2023-03-25T18:29:12.500Z,17.35
2023-03-25T18:31:40.607Z,31.10
2023-03-25T18:34:09.788Z,23.17
2023-03-25T18:36:38.705Z,20.95
2023-03-25T18:39:13.728Z,22.25
2023-03-25T18:41:42.382Z,15.77
2023-03-25T18:44:11.337Z,14.35
2023-03-25T18:46:40.090Z,18.25
2023-03-25T18:49:13.946Z,16.50
2023-03-25T18:51:42.782Z,21.42
2023-03-25T18:54:12.494Z,20.52
2023-03-25T18:56:41.618Z,28.60
2023-03-25T18:59:09.931Z,22.05
2023-03-25T19:01:38.536Z,21.48
2023-03-25T19:04:06.796Z,21.60
2023-03-25T19:06:34.930Z,17.52
2023-03-25T19:09:03.719Z,19.88
2023-03-25T19:11:33.863Z,26.25
2023-03-25T19:14:01.957Z,20.13
2023-03-25T19:16:30.105Z,17.80
2023-03-25T19:18:58.116Z,26.00
2023-03-25T19:21:26.184Z,21.98
2023-03-25T19:23:54.248Z,23.90
2023-03-25T19:26:22.257Z,17.33
2023-03-25T19:28:51.761Z,22.70
2023-03-25T19:31:19.776Z,22.83
2023-03-25T19:33:47.792Z,22.63
2023-03-25T19:36:19.030Z,22.25
2023-03-25T19:38:47.290Z,26.63
2023-03-25T19:41:16.836Z,23.38
2023-03-25T19:43:44.996Z,20.40
2023-03-25T19:46:14.939Z,24.10
2023-03-25T19:48:42.973Z,19.30
2023-03-25T19:51:10.993Z,20.15
2023-03-25T19:53:39.028Z,19.58
2023-03-25T19:56:07.359Z,20.00
2023-03-25T19:58:35.587Z,20.08
2023-03-25T20:01:03.774Z,16.00
2023-03-25T20:03:35.595Z,15.45
2023-03-25T20:06:06.139Z,23.05
2023-03-25T20:08:34.454Z,9.98
2023-03-25T20:11:09.533Z,14.75
2023-03-25T20:13:37.673Z,22.48
2023-03-25T20:16:06.708Z,22.38
2023-03-25T20:18:36.219Z,24.02
2023-03-25T20:21:08.073Z,21.73
2023-03-25T20:23:36.131Z,19.95
2023-03-25T20:26:04.287Z,21.77
2023-03-25T20:28:32.415Z,21.20
2023-03-25T20:31:00.588Z,32.65
2023-03-25T20:33:28.721Z,19.83
2023-03-25T20:35:58.158Z,17.60
2023-03-25T20:38:26.251Z,17.40
2023-03-25T20:40:55.604Z,27.13
2023-03-25T20:43:23.633Z,21.38
2023-03-25T20:45:55.577Z,16.30
2023-03-25T20:48:23.691Z,22.52
2023-03-25T20:50:58.776Z,21.83
2023-03-25T20:53:29.115Z,26.05
2023-03-25T20:55:57.917Z,27.25
2023-03-25T20:58:26.849Z,19.10
2023-03-25T21:00:58.898Z,22.50
2023-03-25T21:03:27.809Z,22.92
2023-03-25T21:05:58.020Z,23.58
2023-03-25T21:11:23.221Z,23.08
2023-03-25T21:13:51.651Z,29.55
2023-03-25T21:16:20.283Z,22.08
2023-03-25T21:18:50.257Z,21.20
2023-03-25T21:21:19.929Z,19.23
2023-03-25T21:23:49.308Z,22.83
2023-03-25T21:26:17.750Z,23.67
2023-03-25T21:28:48.657Z,19.30
2023-03-25T21:31:21.998Z,19.58
2023-03-25T21:33:52.517Z,22.17
2023-03-25T21:36:24.436Z,19.30
2023-03-25T21:38:56.654Z,23.52
2023-03-25T21:41:25.484Z,20.60
2023-03-25T21:43:55.424Z,20.80
2023-03-25T21:46:27.580Z,16.00
2023-03-25T21:48:58.699Z,22.83
2023-03-25T21:51:30.391Z,18.92
2023-03-25T21:54:00.459Z,13.57
2023-03-25T21:56:31.083Z,11.55
2023-03-25T21:59:01.975Z,15.90
2023-03-25T22:01:32.452Z,17.25
2023-03-25T22:04:02.499Z,16.48
2023-03-25T22:06:33.465Z,15.10
2023-03-25T22:09:05.576Z,23.48
2023-03-25T22:11:37.516Z,13.65
2023-03-25T22:14:08.089Z,20.23
2023-03-25T22:16:37.010Z,15.23
2023-03-25T22:19:05.839Z,18.60
2023-03-25T22:21:37.416Z,16.50
2023-03-25T22:24:08.390Z,21.80
2023-03-25T22:26:39.248Z,25.25
2023-03-25T22:29:10.445Z,17.67
2023-03-25T22:31:41.149Z,21.27
2023-03-25T22:34:15.591Z,22.27
2023-03-25T22:36:50.162Z,21.73
2023-03-25T22:39:19.379Z,17.17
2023-03-25T22:41:47.930Z,23.35
2023-03-25T22:44:18.195Z,21.70
2023-03-25T22:46:46.837Z,22.80
2023-03-25T22:49:15.478Z,20.17
2023-03-25T22:51:44.068Z,25.17
2023-03-25T22:54:12.398Z,22.02
2023-03-25T22:56:40.907Z,27.05
2023-03-25T22:59:09.712Z,18.40
2023-03-25T23:01:39.610Z,26.73
2023-03-25T23:04:08.373Z,25.27
2023-03-25T23:06:36.993Z,23.00
2023-03-25T23:09:08.485Z,17.97
2023-03-25T23:11:37.979Z,15.15
2023-03-25T23:14:08.589Z,19.92
2023-03-25T23:16:38.999Z,20.92
2023-03-25T23:19:10.020Z,23.08
2023-03-25T23:21:38.774Z,24.35
2023-03-25T23:24:07.770Z,20.83
2023-03-25T23:26:39.004Z,23.17
2023-03-25T23:29:09.633Z,21.80
2023-03-25T23:31:41.432Z,27.55
2023-03-25T23:34:13.517Z,25.27
2023-03-25T23:36:41.935Z,22.15
2023-03-25T23:39:12.498Z,23.45
2023-03-25T23:41:40.935Z,24.45
2023-03-25T23:44:09.472Z,25.02
2023-03-25T23:46:37.861Z,23.40
2023-03-25T23:49:06.395Z,22.48
2023-03-25T23:51:37.785Z,22.42
2023-03-25T23:54:07.664Z,24.65
2023-03-25T23:56:36.469Z,25.48
2023-03-25T23:59:06.513Z,26.60
